Ridgeland, South Carolina
Current Conditions -  °F | °C
As of 12:56 AM on Saturday 25 Oct 2014 (Local Time) from KNBC Reporting Station
Clear Clear  
Wind Chill: 56°   Ceiling: Unl
Heat Index: 56°   Visibility: 10mi
Dew Point: 51°   Wind: 0mph
Humidity: 84%   Direction: NA
Pressure: 30.01"   Gusts: NA
Location:  32.48°N, 80.98°W
Report Text: KNBC 250456Z AUTO 00000KT 10SM CLR 13/11 A3001 RMK AO2 SLP162 T01330106 402390089 $
Loading
Personal Weather Stations






























Interactive Weather Map
Tropical Storm Tracking
New forecast layout! Learn more

10-Day Weather Forecast

Advertisements
Track Severe Weather on mobile